Time,TemperatureF,DewpointF,PressureIn,WindDirection,WindDirectionDegrees,WindSpeedMPH,WindSpeedGustMPH,Humidity,HourlyPrecipIn,Conditions,Clouds,dailyrainin,SoftwareType,DateUTC
2013-10-20 00:00:00,40.2,38.6,29.76,West,263,0.0,0.0,94,0.05,,,0.70,Wunderground v.1.15,2013-10-20 04:00:00,
2013-10-20 00:05:00,40.0,38.4,29.77,West,264,0.0,0.0,94,0.00,,,0.00,Wunderground v.1.15,2013-10-20 04:05:00,
2013-10-20 00:15:00,40.4,39.1,29.78,WSW,249,1.0,5.0,95,0.08,,,0.02,Wunderground v.1.15,2013-10-20 04:15:00,
2013-10-20 00:20:00,40.9,39.6,29.78,WSW,237,3.0,3.0,95,0.18,,,0.03,Wunderground v.1.15,2013-10-20 04:20:00,
2013-10-20 00:25:00,40.9,39.6,29.77,SSW,209,3.0,3.0,95,0.19,,,0.04,Wunderground v.1.15,2013-10-20 04:25:00,
2013-10-20 00:30:00,40.9,39.6,29.77,SSW,209,1.0,1.0,95,0.12,,,0.05,Wunderground v.1.15,2013-10-20 04:30:00,
2013-10-20 00:35:00,40.9,39.6,29.77,SSW,209,0.0,1.0,95,0.34,,,0.07,Wunderground v.1.15,2013-10-20 04:35:00,
2013-10-20 00:45:00,40.5,39.2,29.77,SE,136,0.0,0.0,95,0.15,,,0.11,Wunderground v.1.15,2013-10-20 04:45:00,
2013-10-20 00:50:00,40.4,39.1,29.78,SE,136,0.0,0.0,95,0.12,,,0.12,Wunderground v.1.15,2013-10-20 04:50:00,
2013-10-20 01:00:00,40.4,39.1,29.78,SSW,198,0.0,0.0,95,0.13,,,0.17,Wunderground v.1.15,2013-10-20 05:00:00,
2013-10-20 01:05:00,40.3,39.0,29.77,SSW,198,0.0,0.0,95,0.19,,,0.18,Wunderground v.1.15,2013-10-20 05:05:00,
2013-10-20 01:15:00,40.0,38.7,29.77,SSW,198,0.0,0.0,95,0.09,,,0.19,Wunderground v.1.15,2013-10-20 05:15:00,
2013-10-20 01:20:00,40.0,38.7,29.76,SSW,198,0.0,0.0,95,0.05,,,0.19,Wunderground v.1.15,2013-10-20 05:20:00,
2013-10-20 01:30:00,39.8,38.5,29.76,SSW,198,0.0,0.0,95,0.05,,,0.20,Wunderground v.1.15,2013-10-20 05:30:00,
2013-10-20 01:35:00,39.7,38.4,29.76,SSW,198,0.0,0.0,95,0.04,,,0.20,Wunderground v.1.15,2013-10-20 05:35:00,
2013-10-20 01:40:00,39.6,38.6,29.76,SSE,162,0.0,0.0,96,0.00,,,0.20,Wunderground v.1.15,2013-10-20 05:40:00,
2013-10-20 01:45:00,39.7,38.7,29.76,SSE,162,0.0,0.0,96,0.00,,,0.20,Wunderground v.1.15,2013-10-20 05:45:00,
2013-10-20 01:55:00,39.8,38.8,29.76,SSE,161,0.0,0.0,96,0.00,,,0.20,Wunderground v.1.15,2013-10-20 05:55:00,
2013-10-20 02:00:00,39.7,38.7,29.76,SSE,162,0.0,0.0,96,0.00,,,0.20,Wunderground v.1.15,2013-10-20 06:00:00,
2013-10-20 02:05:00,39.6,38.6,29.76,SSE,161,0.0,0.0,96,0.00,,,0.20,Wunderground v.1.15,2013-10-20 06:05:00,
2013-10-20 02:15:00,39.6,38.6,29.76,SSE,162,0.0,0.0,96,0.00,,,0.20,Wunderground v.1.15,2013-10-20 06:15:00,
2013-10-20 02:20:00,39.6,38.6,29.76,SSE,161,0.0,0.0,96,0.00,,,0.20,Wunderground v.1.15,2013-10-20 06:20:00,
2013-10-20 02:30:00,39.6,38.6,29.76,East,94,0.0,0.0,96,0.00,,,0.20,Wunderground v.1.15,2013-10-20 06:30:00,
2013-10-20 02:35:00,39.4,38.4,29.76,East,94,0.0,0.0,96,0.00,,,0.20,Wunderground v.1.15,2013-10-20 06:35:00,
2013-10-20 02:40:00,39.4,38.4,29.76,East,94,0.0,0.0,96,0.00,,,0.21,Wunderground v.1.15,2013-10-20 06:40:00,
2013-10-20 02:45:00,39.4,38.4,29.76,East,94,0.0,0.0,96,0.00,,,0.21,Wunderground v.1.15,2013-10-20 06:45:00,
2013-10-20 02:50:00,39.5,38.5,29.76,East,94,0.0,0.0,96,0.00,,,0.21,Wunderground v.1.15,2013-10-20 06:50:00,
2013-10-20 03:00:00,39.9,38.9,29.76,SSE,161,0.0,0.0,96,0.00,,,0.21,Wunderground v.1.15,2013-10-20 07:00:00,
2013-10-20 03:05:00,39.9,38.9,29.76,SSE,160,0.0,0.0,96,0.00,,,0.21,Wunderground v.1.15,2013-10-20 07:05:00,
2013-10-20 03:15:00,39.7,38.7,29.76,SSE,160,0.0,0.0,96,0.00,,,0.21,Wunderground v.1.15,2013-10-20 07:15:00,
2013-10-20 03:20:00,39.7,38.7,29.76,SSE,159,0.0,0.0,96,0.00,,,0.21,Wunderground v.1.15,2013-10-20 07:20:00,
2013-10-20 03:25:00,39.6,38.6,29.76,SSE,159,0.0,0.0,96,0.00,,,0.21,Wunderground v.1.15,2013-10-20 07:25:00,
2013-10-20 03:35:00,39.5,38.7,29.76,SSE,159,0.0,0.0,97,0.00,,,0.21,Wunderground v.1.15,2013-10-20 07:35:00,
2013-10-20 03:40:00,39.4,38.6,29.76,NE,40,0.0,0.0,97,0.00,,,0.21,Wunderground v.1.15,2013-10-20 07:40:00,
2013-10-20 03:45:00,39.4,38.6,29.76,NE,40,0.0,0.0,97,0.00,,,0.21,Wunderground v.1.15,2013-10-20 07:45:00,
2013-10-20 03:55:00,39.2,38.2,29.76,NE,40,0.0,0.0,96,0.00,,,0.21,Wunderground v.1.15,2013-10-20 07:55:00,
2013-10-20 04:00:00,38.9,37.9,29.76,NE,40,0.0,0.0,96,0.00,,,0.21,Wunderground v.1.15,2013-10-20 08:00:00,
2013-10-20 04:05:00,38.6,37.6,29.76,NE,40,0.0,0.0,96,0.00,,,0.21,Wunderground v.1.15,2013-10-20 08:05:00,
2013-10-20 04:15:00,38.2,37.2,29.77,NE,40,0.0,0.0,96,0.00,,,0.21,Wunderground v.1.15,2013-10-20 08:15:00,
2013-10-20 04:20:00,38.0,37.0,29.77,NE,40,0.0,0.0,96,0.00,,,0.21,Wunderground v.1.15,2013-10-20 08:20:00,
2013-10-20 04:25:00,38.0,37.0,29.77,NE,40,0.0,0.0,96,0.00,,,0.21,Wunderground v.1.15,2013-10-20 08:25:00,
2013-10-20 04:30:00,38.0,37.2,29.77,NE,40,0.0,0.0,97,0.00,,,0.21,Wunderground v.1.15,2013-10-20 08:30:00,
2013-10-20 04:40:00,38.0,37.0,29.77,NE,40,0.0,0.0,96,0.00,,,0.21,Wunderground v.1.15,2013-10-20 08:40:00,
2013-10-20 04:45:00,37.9,36.9,29.77,NE,40,0.0,0.0,96,0.00,,,0.21,Wunderground v.1.15,2013-10-20 08:45:00,
2013-10-20 04:50:00,37.9,36.9,29.77,NE,40,0.0,0.0,96,0.00,,,0.21,Wunderground v.1.15,2013-10-20 08:50:00,
2013-10-20 04:55:00,37.9,36.9,29.77,NE,40,0.0,0.0,96,0.00,,,0.21,Wunderground v.1.15,2013-10-20 08:55:00,
2013-10-20 05:00:00,37.9,37.1,29.77,NE,40,0.0,0.0,97,0.00,,,0.21,Wunderground v.1.15,2013-10-20 09:00:00,
2013-10-20 05:05:00,37.8,37.0,29.77,NE,40,0.0,0.0,97,0.00,,,0.21,Wunderground v.1.15,2013-10-20 09:05:00,
2013-10-20 05:15:00,37.5,36.5,29.77,NE,40,0.0,0.0,96,0.00,,,0.21,Wunderground v.1.15,2013-10-20 09:15:00,
2013-10-20 05:20:00,37.3,36.3,29.77,NE,40,0.0,0.0,96,0.00,,,0.21,Wunderground v.1.15,2013-10-20 09:20:00,
2013-10-20 05:25:00,37.4,36.4,29.77,NE,40,0.0,0.0,96,0.00,,,0.21,Wunderground v.1.15,2013-10-20 09:25:00,
2013-10-20 05:30:00,37.4,36.6,29.77,NE,40,0.0,0.0,97,0.00,,,0.21,Wunderground v.1.15,2013-10-20 09:30:00,
2013-10-20 05:35:00,37.3,36.5,29.77,NE,40,0.0,1.0,97,0.00,,,0.21,Wunderground v.1.15,2013-10-20 09:35:00,
2013-10-20 05:45:00,37.3,36.5,29.78,NE,40,0.0,0.0,97,0.00,,,0.21,Wunderground v.1.15,2013-10-20 09:45:00,
2013-10-20 05:50:00,37.2,36.4,29.78,NE,40,0.0,0.0,97,0.00,,,0.21,Wunderground v.1.15,2013-10-20 09:50:00,
2013-10-20 05:55:00,37.2,36.4,29.78,NE,40,0.0,0.0,97,0.00,,,0.21,Wunderground v.1.15,2013-10-20 09:55:00,
2013-10-20 06:00:00,37.3,36.5,29.78,NE,40,0.0,0.0,97,0.00,,,0.21,Wunderground v.1.15,2013-10-20 10:00:00,
2013-10-20 06:05:00,37.4,36.6,29.78,NE,40,0.0,0.0,97,0.00,,,0.21,Wunderground v.1.15,2013-10-20 10:05:00,
2013-10-20 06:15:00,37.5,36.7,29.78,NE,40,0.0,2.0,97,0.00,,,0.21,Wunderground v.1.15,2013-10-20 10:15:00,
2013-10-20 06:20:00,37.4,36.6,29.78,NE,40,0.0,0.0,97,0.00,,,0.21,Wunderground v.1.15,2013-10-20 10:20:00,
2013-10-20 06:25:00,37.3,36.5,29.78,NE,40,0.0,0.0,97,0.00,,,0.21,Wunderground v.1.15,2013-10-20 10:25:00,
2013-10-20 06:30:00,37.3,36.5,29.78,NE,40,0.0,0.0,97,0.00,,,0.21,Wunderground v.1.15,2013-10-20 10:30:00,
2013-10-20 06:35:00,37.5,36.7,29.78,NE,40,0.0,0.0,97,0.00,,,0.21,Wunderground v.1.15,2013-10-20 10:35:00,
2013-10-20 06:40:00,37.7,36.9,29.78,NE,40,0.0,0.0,97,0.00,,,0.21,Wunderground v.1.15,2013-10-20 10:40:00,
2013-10-20 06:50:00,38.0,37.2,29.78,NE,40,0.0,0.0,97,0.00,,,0.21,Wunderground v.1.15,2013-10-20 10:50:00,
2013-10-20 06:55:00,38.1,37.3,29.78,NE,40,0.0,0.0,97,0.00,,,0.21,Wunderground v.1.15,2013-10-20 10:55:00,
2013-10-20 07:00:00,38.2,37.4,29.78,NE,40,0.0,1.0,97,0.00,,,0.21,Wunderground v.1.15,2013-10-20 11:00:00,
2013-10-20 07:05:00,38.4,37.6,29.78,NE,40,0.0,1.0,97,0.00,,,0.21,Wunderground v.1.15,2013-10-20 11:05:00,
2013-10-20 07:15:00,38.7,37.9,29.79,NE,40,0.0,0.0,97,0.00,,,0.21,Wunderground v.1.15,2013-10-20 11:15:00,
2013-10-20 07:25:00,39.6,38.8,29.79,East,82,0.0,1.0,97,0.00,,,0.21,Wunderground v.1.15,2013-10-20 11:25:00,
2013-10-20 07:30:00,40.1,39.3,29.79,East,91,0.0,0.0,97,0.00,,,0.21,Wunderground v.1.15,2013-10-20 11:30:00,
2013-10-20 07:35:00,40.4,39.9,29.79,East,95,0.0,0.0,98,0.00,,,0.21,Wunderground v.1.15,2013-10-20 11:35:00,
2013-10-20 07:40:00,40.6,40.1,29.79,SE,136,0.0,0.0,98,0.00,,,0.21,Wunderground v.1.15,2013-10-20 11:40:00,
2013-10-20 07:45:00,40.5,40.0,29.79,SE,134,0.0,0.0,98,0.00,,,0.21,Wunderground v.1.15,2013-10-20 11:45:00,
2013-10-20 07:55:00,40.5,39.7,29.79,SE,134,0.0,0.0,97,0.00,,,0.21,Wunderground v.1.15,2013-10-20 11:55:00,
2013-10-20 08:00:00,40.6,39.8,29.80,SE,134,0.0,0.0,97,0.00,,,0.21,Wunderground v.1.15,2013-10-20 12:00:00,
2013-10-20 08:05:00,42.1,41.6,29.79,SW,225,2.0,9.0,98,0.00,,,0.21,Wunderground v.1.15,2013-10-20 12:05:00,
2013-10-20 08:15:00,43.2,42.7,29.79,SSW,201,6.0,6.0,98,0.00,,,0.21,Wunderground v.1.15,2013-10-20 12:15:00,
2013-10-20 08:20:00,43.3,42.5,29.79,SSW,205,4.0,4.0,97,0.00,,,0.21,Wunderground v.1.15,2013-10-20 12:20:00,
2013-10-20 08:30:00,43.5,41.6,29.80,WSW,237,3.0,6.0,93,0.00,,,0.21,Wunderground v.1.15,2013-10-20 12:30:00,
2013-10-20 08:35:00,44.3,41.6,29.80,SSW,202,3.0,6.0,90,0.00,,,0.21,Wunderground v.1.15,2013-10-20 12:35:00,
2013-10-20 08:40:00,44.6,41.6,29.80,SW,219,5.0,6.0,89,0.00,,,0.21,Wunderground v.1.15,2013-10-20 12:40:00,
2013-10-20 08:45:00,44.7,41.1,29.80,SSW,203,4.0,6.0,87,0.00,,,0.21,Wunderground v.1.15,2013-10-20 12:45:00,
2013-10-20 08:50:00,44.7,41.4,29.81,SW,219,4.0,4.0,88,0.00,,,0.21,Wunderground v.1.15,2013-10-20 12:50:00,
2013-10-20 09:00:00,44.4,40.8,29.81,SSW,210,4.0,4.0,87,0.00,,,0.21,Wunderground v.1.15,2013-10-20 13:00:00,
2013-10-20 09:05:00,44.6,41.0,29.82,SSW,202,3.0,4.0,87,0.00,,,0.21,Wunderground v.1.15,2013-10-20 13:05:00,
2013-10-20 09:15:00,45.0,41.4,29.82,SSW,202,2.0,5.0,87,0.00,,,0.21,Wunderground v.1.15,2013-10-20 13:15:00,
2013-10-20 09:20:00,45.2,41.6,29.82,SSW,192,3.0,3.0,87,0.00,,,0.21,Wunderground v.1.15,2013-10-20 13:20:00,
2013-10-20 09:30:00,45.0,42.0,29.82,SSE,168,0.0,0.0,89,0.00,,,0.21,Wunderground v.1.15,2013-10-20 13:30:00,
2013-10-20 09:35:00,45.0,42.0,29.83,East,98,0.0,0.0,89,0.00,,,0.21,Wunderground v.1.15,2013-10-20 13:35:00,
2013-10-20 09:40:00,44.8,41.8,29.83,South,189,1.0,1.0,89,0.00,,,0.21,Wunderground v.1.15,2013-10-20 13:40:00,
2013-10-20 09:45:00,44.7,41.7,29.83,SE,138,0.0,1.0,89,0.00,,,0.21,Wunderground v.1.15,2013-10-20 13:45:00,
2013-10-20 09:50:00,44.7,41.9,29.83,SSE,148,0.0,0.0,90,0.00,,,0.21,Wunderground v.1.15,2013-10-20 13:50:00,
2013-10-20 10:00:00,44.7,42.2,29.83,ESE,119,1.0,1.0,91,0.00,,,0.21,Wunderground v.1.15,2013-10-20 14:00:00,
2013-10-20 10:05:00,44.7,42.2,29.83,South,182,1.0,1.0,91,0.00,,,0.21,Wunderground v.1.15,2013-10-20 14:05:00,
2013-10-20 10:15:00,45.2,41.3,29.84,SW,215,3.0,5.0,86,0.00,,,0.21,Wunderground v.1.15,2013-10-20 14:15:00,
2013-10-20 10:20:00,45.7,41.8,29.83,SW,223,5.0,5.0,86,0.00,,,0.21,Wunderground v.1.15,2013-10-20 14:20:00,
2013-10-20 10:25:00,45.9,41.0,29.83,SSW,211,5.0,6.0,83,0.00,,,0.21,Wunderground v.1.15,2013-10-20 14:25:00,
2013-10-20 10:30:00,46.1,41.8,29.84,SSW,206,4.0,8.0,85,0.00,,,0.21,Wunderground v.1.15,2013-10-20 14:30:00,
2013-10-20 10:40:00,45.8,42.4,29.84,SSW,195,2.0,2.0,88,0.00,,,0.21,Wunderground v.1.15,2013-10-20 14:40:00,
2013-10-20 10:45:00,45.6,42.5,29.84,SE,138,0.0,2.0,89,0.00,,,0.21,Wunderground v.1.15,2013-10-20 14:45:00,
2013-10-20 10:50:00,45.5,42.2,29.84,SSW,203,1.0,7.0,88,0.00,,,0.21,Wunderground v.1.15,2013-10-20 14:50:00,
2013-10-20 10:55:00,46.3,42.3,29.84,SW,227,3.0,7.0,86,0.00,,,0.21,Wunderground v.1.15,2013-10-20 14:55:00,
2013-10-20 11:00:00,46.5,41.6,29.84,SSW,211,5.0,5.0,83,0.00,,,0.21,Wunderground v.1.15,2013-10-20 15:00:00,
2013-10-20 11:05:00,46.7,41.8,29.84,WSW,241,5.0,8.0,83,0.00,,,0.21,Wunderground v.1.15,2013-10-20 15:05:00,
2013-10-20 11:15:00,46.8,41.6,29.84,SW,233,6.0,6.0,82,0.00,,,0.21,Wunderground v.1.15,2013-10-20 15:15:00,
2013-10-20 11:20:00,47.0,41.5,29.85,SW,227,6.0,6.0,81,0.00,,,0.21,Wunderground v.1.15,2013-10-20 15:20:00,
2013-10-20 11:25:00,47.0,40.8,29.84,WSW,240,6.0,8.0,79,0.00,,,0.21,Wunderground v.1.15,2013-10-20 15:25:00,
2013-10-20 11:30:00,47.3,41.8,29.85,SW,235,7.0,7.0,81,0.00,,,0.21,Wunderground v.1.15,2013-10-20 15:30:00,
2013-10-20 11:35:00,47.4,41.2,29.85,WSW,239,7.0,7.0,79,0.00,,,0.21,Wunderground v.1.15,2013-10-20 15:35:00,
2013-10-20 11:45:00,47.3,41.1,29.85,SW,229,6.0,8.0,79,0.00,,,0.21,Wunderground v.1.15,2013-10-20 15:45:00,
2013-10-20 11:50:00,47.6,41.4,29.85,SSW,209,6.0,10.0,79,0.00,,,0.21,Wunderground v.1.15,2013-10-20 15:50:00,
2013-10-20 11:55:00,47.6,41.1,29.85,SW,234,5.0,10.0,78,0.00,,,0.21,Wunderground v.1.15,2013-10-20 15:55:00,
2013-10-20 12:00:00,47.7,41.5,29.85,SSW,207,5.0,8.0,79,0.00,,,0.21,Wunderground v.1.15,2013-10-20 16:00:00,
2013-10-20 12:05:00,47.8,40.9,29.85,SW,234,5.0,8.0,77,0.00,,,0.21,Wunderground v.1.15,2013-10-20 16:05:00,
2013-10-20 12:15:00,48.1,41.2,29.85,SSW,206,5.0,7.0,77,0.00,,,0.21,Wunderground v.1.15,2013-10-20 16:15:00,
2013-10-20 12:20:00,48.4,42.2,29.85,SW,235,6.0,6.0,79,0.00,,,0.21,Wunderground v.1.15,2013-10-20 16:20:00,
2013-10-20 12:25:00,48.1,40.9,29.85,WSW,237,7.0,7.0,76,0.00,,,0.21,Wunderground v.1.15,2013-10-20 16:25:00,
2013-10-20 12:30:00,48.1,41.2,29.85,SW,221,7.0,7.0,77,0.00,,,0.21,Wunderground v.1.15,2013-10-20 16:30:00,
2013-10-20 12:35:00,48.3,41.4,29.85,SW,234,6.0,7.0,77,0.00,,,0.21,Wunderground v.1.15,2013-10-20 16:35:00,
2013-10-20 12:40:00,47.8,40.9,29.86,SW,229,6.0,6.0,77,0.00,,,0.21,Wunderground v.1.15,2013-10-20 16:40:00,
2013-10-20 12:50:00,48.3,40.0,29.86,SW,216,4.0,7.0,73,0.00,,,0.21,Wunderground v.1.15,2013-10-20 16:50:00,
2013-10-20 12:55:00,48.4,41.2,29.86,SW,229,5.0,10.0,76,0.00,,,0.21,Wunderground v.1.15,2013-10-20 16:55:00,
2013-10-20 13:00:00,48.3,40.7,29.86,SSW,207,5.0,8.0,75,0.00,,,0.21,Wunderground v.1.15,2013-10-20 17:00:00,
2013-10-20 13:05:00,48.5,40.6,29.86,SW,218,5.0,8.0,74,0.00,,,0.21,Wunderground v.1.15,2013-10-20 17:05:00,
2013-10-20 13:15:00,48.4,40.5,29.86,SSW,207,3.0,4.0,74,0.00,,,0.21,Wunderground v.1.15,2013-10-20 17:15:00,
2013-10-20 13:25:00,48.1,40.5,29.85,SW,236,3.0,7.0,75,0.00,,,0.21,Wunderground v.1.15,2013-10-20 17:25:00,
2013-10-20 13:30:00,48.1,41.2,29.85,SW,228,5.0,5.0,77,0.00,,,0.21,Wunderground v.1.15,2013-10-20 17:30:00,
2013-10-20 13:35:00,48.2,40.6,29.85,SW,232,5.0,5.0,75,0.00,,,0.21,Wunderground v.1.15,2013-10-20 17:35:00,
2013-10-20 13:40:00,48.7,40.4,29.85,SW,223,4.0,5.0,73,0.00,,,0.21,Wunderground v.1.15,2013-10-20 17:40:00,
2013-10-20 13:45:00,48.8,41.2,29.85,SW,236,4.0,5.0,75,0.00,,,0.21,Wunderground v.1.15,2013-10-20 17:45:00,
2013-10-20 13:55:00,48.7,40.4,29.85,WSW,238,5.0,8.0,73,0.00,,,0.21,Wunderground v.1.15,2013-10-20 17:55:00,
2013-10-20 14:00:00,48.8,40.2,29.85,WSW,240,5.0,7.0,72,0.00,,,0.21,Wunderground v.1.15,2013-10-20 18:00:00,
2013-10-20 14:05:00,48.7,39.7,29.85,SW,223,5.0,7.0,71,0.00,,,0.21,Wunderground v.1.15,2013-10-20 18:05:00,
2013-10-20 14:15:00,49.1,39.7,29.84,SW,234,4.0,4.0,70,0.00,,,0.21,Wunderground v.1.15,2013-10-20 18:15:00,
2013-10-20 14:25:00,49.2,40.2,29.84,SW,234,4.0,7.0,71,0.00,,,0.21,Wunderground v.1.15,2013-10-20 18:25:00,
2013-10-20 14:30:00,49.1,41.9,29.84,WSW,242,4.0,7.0,76,0.00,,,0.21,Wunderground v.1.15,2013-10-20 18:30:00,
2013-10-20 14:35:00,49.2,40.2,29.84,SW,232,7.0,7.0,71,0.00,,,0.21,Wunderground v.1.15,2013-10-20 18:35:00,
2013-10-20 14:40:00,49.3,40.7,29.84,WSW,239,7.0,7.0,72,0.00,,,0.21,Wunderground v.1.15,2013-10-20 18:40:00,
2013-10-20 14:45:00,49.8,40.4,29.83,SSW,207,5.0,7.0,70,0.00,,,0.21,Wunderground v.1.15,2013-10-20 18:45:00,
2013-10-20 14:55:00,49.9,39.0,29.83,SSW,209,3.0,5.0,66,0.00,,,0.21,Wunderground v.1.15,2013-10-20 18:55:00,
2013-10-20 15:00:00,49.6,39.5,29.83,SW,217,2.0,2.0,68,0.00,,,0.21,Wunderground v.1.15,2013-10-20 19:00:00,
2013-10-20 15:10:00,50.0,39.1,29.83,SW,236,3.0,3.0,66,0.00,,,0.21,Wunderground v.1.15,2013-10-20 19:10:00,
2013-10-20 15:15:00,50.3,40.1,29.83,WSW,237,3.0,5.0,68,0.00,,,0.21,Wunderground v.1.15,2013-10-20 19:15:00,
2013-10-20 15:20:00,50.0,39.8,29.84,SSW,212,4.0,5.0,68,0.00,,,0.21,Wunderground v.1.15,2013-10-20 19:20:00,
2013-10-20 15:25:00,49.9,40.5,29.84,SW,236,4.0,5.0,70,0.00,,,0.21,Wunderground v.1.15,2013-10-20 19:25:00,
2013-10-20 15:35:00,49.4,40.4,29.84,SW,233,4.0,4.0,71,0.00,,,0.21,Wunderground v.1.15,2013-10-20 19:35:00,
2013-10-20 15:40:00,49.3,38.8,29.84,SSW,204,3.0,5.0,67,0.00,,,0.21,Wunderground v.1.15,2013-10-20 19:40:00,
2013-10-20 15:45:00,49.4,38.9,29.84,SSW,201,2.0,5.0,67,0.00,,,0.21,Wunderground v.1.15,2013-10-20 19:45:00,
2013-10-20 15:50:00,49.4,38.9,29.84,SSW,207,2.0,2.0,67,0.00,,,0.21,Wunderground v.1.15,2013-10-20 19:50:00,
2013-10-20 15:55:00,49.6,38.3,29.83,SSW,208,2.0,5.0,65,0.00,,,0.21,Wunderground v.1.15,2013-10-20 19:55:00,
2013-10-20 16:00:00,49.6,38.7,29.83,SSW,209,3.0,3.0,66,0.00,,,0.21,Wunderground v.1.15,2013-10-20 20:00:00,
2013-10-20 16:05:00,49.5,38.6,29.83,SSW,205,3.0,3.0,66,0.00,,,0.21,Wunderground v.1.15,2013-10-20 20:05:00,
2013-10-20 16:15:00,49.7,38.8,29.83,SSE,160,1.0,2.0,66,0.00,,,0.21,Wunderground v.1.15,2013-10-20 20:15:00,
2013-10-20 16:20:00,49.8,38.9,29.83,South,188,2.0,2.0,66,0.00,,,0.21,Wunderground v.1.15,2013-10-20 20:20:00,
2013-10-20 16:25:00,49.8,38.9,29.83,SSW,192,1.0,2.0,66,0.00,,,0.21,Wunderground v.1.15,2013-10-20 20:25:00,
2013-10-20 16:30:00,49.7,39.2,29.83,SE,142,1.0,2.0,67,0.00,,,0.21,Wunderground v.1.15,2013-10-20 20:30:00,
2013-10-20 16:40:00,49.7,38.4,29.83,South,175,0.0,0.0,65,0.00,,,0.21,Wunderground v.1.15,2013-10-20 20:40:00,
2013-10-20 16:45:00,49.9,39.0,29.83,SSW,195,0.0,1.0,66,0.00,,,0.21,Wunderground v.1.15,2013-10-20 20:45:00,
2013-10-20 16:50:00,50.0,39.1,29.83,SSW,195,1.0,1.0,66,0.00,,,0.21,Wunderground v.1.15,2013-10-20 20:50:00,
2013-10-20 16:55:00,50.1,38.4,29.83,South,191,1.0,1.0,64,0.00,,,0.21,Wunderground v.1.15,2013-10-20 20:55:00,
2013-10-20 17:00:00,50.1,38.8,29.83,SSW,201,1.0,1.0,65,0.00,,,0.21,Wunderground v.1.15,2013-10-20 21:00:00,
2013-10-20 17:05:00,50.1,38.0,29.83,SSW,203,1.0,1.0,63,0.00,,,0.21,Wunderground v.1.15,2013-10-20 21:05:00,
2013-10-20 17:15:00,49.9,38.6,29.83,SSW,200,1.0,1.0,65,0.00,,,0.21,Wunderground v.1.15,2013-10-20 21:15:00,
2013-10-20 17:20:00,49.8,38.5,29.82,SSE,168,1.0,1.0,65,0.00,,,0.21,Wunderground v.1.15,2013-10-20 21:20:00,
2013-10-20 17:30:00,49.5,38.2,29.82,SSE,168,0.0,0.0,65,0.00,,,0.21,Wunderground v.1.15,2013-10-20 21:30:00,
2013-10-20 17:35:00,49.4,38.1,29.82,South,169,0.0,0.0,65,0.00,,,0.21,Wunderground v.1.15,2013-10-20 21:35:00,
2013-10-20 17:40:00,49.2,39.8,29.82,South,169,0.0,0.0,70,0.00,,,0.21,Wunderground v.1.15,2013-10-20 21:40:00,
2013-10-20 17:50:00,48.6,39.3,29.82,SSE,168,0.0,0.0,70,0.00,,,0.21,Wunderground v.1.15,2013-10-20 21:50:00,
2013-10-20 17:55:00,48.3,39.7,29.82,SSE,167,0.0,0.0,72,0.00,,,0.21,Wunderground v.1.15,2013-10-20 21:55:00,
2013-10-20 18:00:00,48.0,39.4,29.82,SSE,167,0.0,0.0,72,0.00,,,0.21,Wunderground v.1.15,2013-10-20 22:00:00,
2013-10-20 18:05:00,47.7,39.8,29.81,SSE,167,0.0,0.0,74,0.00,,,0.21,Wunderground v.1.15,2013-10-20 22:05:00,
2013-10-20 18:15:00,47.3,40.1,29.81,SSE,167,0.0,0.0,76,0.00,,,0.21,Wunderground v.1.15,2013-10-20 22:15:00,
2013-10-20 18:20:00,47.2,39.7,29.81,SSE,167,0.0,0.0,75,0.00,,,0.21,Wunderground v.1.15,2013-10-20 22:20:00,
2013-10-20 18:25:00,47.0,39.5,29.81,SSE,167,0.0,0.0,75,0.00,,,0.21,Wunderground v.1.15,2013-10-20 22:25:00,
2013-10-20 18:30:00,46.9,39.4,29.81,SSE,167,0.0,0.0,75,0.00,,,0.21,Wunderground v.1.15,2013-10-20 22:30:00,
2013-10-20 18:35:00,46.8,39.3,29.80,SSE,167,0.0,0.0,75,0.00,,,0.21,Wunderground v.1.15,2013-10-20 22:35:00,
2013-10-20 18:40:00,46.8,39.3,29.80,SSE,167,0.0,0.0,75,0.00,,,0.21,Wunderground v.1.15,2013-10-20 22:40:00,
2013-10-20 18:45:00,46.7,39.2,29.80,SSE,167,0.0,0.0,75,0.00,,,0.21,Wunderground v.1.15,2013-10-20 22:45:00,
2013-10-20 18:55:00,46.5,39.0,29.80,SSE,167,0.0,0.0,75,0.00,,,0.21,Wunderground v.1.15,2013-10-20 22:55:00,
2013-10-20 19:00:00,46.4,39.2,29.80,SSE,167,0.0,0.0,76,0.00,,,0.21,Wunderground v.1.15,2013-10-20 23:00:00,
2013-10-20 19:05:00,46.3,39.1,29.80,SSE,167,0.0,1.0,76,0.00,,,0.21,Wunderground v.1.15,2013-10-20 23:05:00,
2013-10-20 19:15:00,46.5,38.7,29.80,SSE,167,0.0,0.0,74,0.00,,,0.21,Wunderground v.1.15,2013-10-20 23:15:00,
2013-10-20 19:25:00,46.8,38.9,29.80,East,96,0.0,0.0,74,0.00,,,0.21,Wunderground v.1.15,2013-10-20 23:25:00,
2013-10-20 19:30:00,46.8,38.9,29.81,SSE,163,0.0,0.0,74,0.00,,,0.21,Wunderground v.1.15,2013-10-20 23:30:00,
2013-10-20 19:35:00,47.0,39.5,29.81,SSE,167,1.0,1.0,75,0.00,,,0.21,Wunderground v.1.15,2013-10-20 23:35:00,
2013-10-20 19:40:00,46.9,39.0,29.81,ESE,119,1.0,1.0,74,0.00,,,0.22,Wunderground v.1.15,2013-10-20 23:40:00,
2013-10-20 19:45:00,46.7,39.5,29.81,SSE,156,1.0,1.0,76,0.00,,,0.22,Wunderground v.1.15,2013-10-20 23:45:00,
2013-10-20 19:50:00,46.3,40.5,29.81,ESE,121,1.0,1.0,80,0.00,,,0.22,Wunderground v.1.15,2013-10-20 23:50:00,
2013-10-20 20:00:00,45.3,40.7,29.81,SE,137,0.0,0.0,84,0.00,,,0.23,Wunderground v.1.15,2013-10-21 00:00:00,
2013-10-20 20:05:00,45.0,41.1,29.80,SE,137,0.0,0.0,86,0.00,,,0.23,Wunderground v.1.15,2013-10-21 00:05:00,
2013-10-20 20:15:00,44.4,41.1,29.81,SSE,158,0.0,0.0,88,0.05,,,0.24,Wunderground v.1.15,2013-10-21 00:15:00,
2013-10-20 20:20:00,44.2,41.2,29.80,SSE,157,0.0,0.0,89,0.05,,,0.24,Wunderground v.1.15,2013-10-21 00:20:00,
2013-10-20 20:30:00,44.0,41.5,29.80,SSE,158,0.0,0.0,91,0.05,,,0.25,Wunderground v.1.15,2013-10-21 00:30:00,
2013-10-20 20:35:00,43.9,41.4,29.80,SSE,158,0.0,0.0,91,0.06,,,0.26,Wunderground v.1.15,2013-10-21 00:35:00,
2013-10-20 20:45:00,43.8,41.9,29.80,SSE,150,0.0,0.0,93,0.05,,,0.26,Wunderground v.1.15,2013-10-21 00:45:00,
2013-10-20 20:50:00,44.0,42.1,29.80,SSE,150,0.0,0.0,93,0.00,,,0.26,Wunderground v.1.15,2013-10-21 00:50:00,
2013-10-20 20:55:00,44.0,42.1,29.80,SSE,164,0.0,0.0,93,0.00,,,0.26,Wunderground v.1.15,2013-10-21 00:55:00,
2013-10-20 21:00:00,44.1,42.5,29.80,SE,138,0.0,0.0,94,0.00,,,0.27,Wunderground v.1.15,2013-10-21 01:00:00,
2013-10-20 21:10:00,44.2,42.6,29.80,SE,138,0.0,0.0,94,0.05,,,0.28,Wunderground v.1.15,2013-10-21 01:10:00,
2013-10-20 21:15:00,44.3,42.7,29.79,SE,138,0.0,0.0,94,0.05,,,0.28,Wunderground v.1.15,2013-10-21 01:15:00,
2013-10-20 21:20:00,44.3,42.7,29.79,SE,138,0.0,0.0,94,0.05,,,0.28,Wunderground v.1.15,2013-10-21 01:20:00,
2013-10-20 21:25:00,44.4,42.8,29.79,SE,138,0.0,0.0,94,0.05,,,0.29,Wunderground v.1.15,2013-10-21 01:25:00,
2013-10-20 21:30:00,44.5,43.2,29.79,SE,138,0.0,0.0,95,0.08,,,0.30,Wunderground v.1.15,2013-10-21 01:30:00,
2013-10-20 21:40:00,44.5,43.2,29.78,SE,138,0.0,0.0,95,0.08,,,0.31,Wunderground v.1.15,2013-10-21 01:40:00,
2013-10-20 21:45:00,44.4,43.1,29.78,SE,138,0.0,0.0,95,0.12,,,0.32,Wunderground v.1.15,2013-10-21 01:45:00,
2013-10-20 21:50:00,44.3,43.0,29.77,SE,138,0.0,0.0,95,0.11,,,0.33,Wunderground v.1.15,2013-10-21 01:50:00,
2013-10-20 21:55:00,44.2,42.9,29.76,SE,138,0.0,0.0,95,0.13,,,0.34,Wunderground v.1.15,2013-10-21 01:55:00,
2013-10-20 22:00:00,44.0,42.7,29.76,SE,138,0.0,0.0,95,0.06,,,0.34,Wunderground v.1.15,2013-10-21 02:00:00,
2013-10-20 22:05:00,43.7,42.4,29.76,SE,138,0.0,0.0,95,0.06,,,0.35,Wunderground v.1.15,2013-10-21 02:05:00,
2013-10-20 22:15:00,43.5,42.2,29.75,SE,138,0.0,0.0,95,0.08,,,0.36,Wunderground v.1.15,2013-10-21 02:15:00,
2013-10-20 22:20:00,43.5,42.2,29.75,SE,138,0.0,0.0,95,0.05,,,0.36,Wunderground v.1.15,2013-10-21 02:20:00,
2013-10-20 22:25:00,43.5,42.4,29.75,SE,138,0.0,0.0,96,0.04,,,0.37,Wunderground v.1.15,2013-10-21 02:25:00,
2013-10-20 22:30:00,43.4,42.1,29.75,SE,138,0.0,0.0,95,0.07,,,0.37,Wunderground v.1.15,2013-10-21 02:30:00,
2013-10-20 22:35:00,43.4,42.3,29.74,SE,138,0.0,0.0,96,0.07,,,0.38,Wunderground v.1.15,2013-10-21 02:35:00,
2013-10-20 22:45:00,43.4,42.3,29.73,SE,138,0.0,0.0,96,0.04,,,0.39,Wunderground v.1.15,2013-10-21 02:45:00,
2013-10-20 22:50:00,43.4,42.3,29.73,SE,138,0.0,1.0,96,0.04,,,0.39,Wunderground v.1.15,2013-10-21 02:50:00,
2013-10-20 22:55:00,43.4,42.3,29.73,SE,138,0.0,1.0,96,0.04,,,0.39,Wunderground v.1.15,2013-10-21 02:55:00,
2013-10-20 23:00:00,43.4,42.3,29.73,SE,138,0.0,0.0,96,0.05,,,0.40,Wunderground v.1.15,2013-10-21 03:00:00,
2013-10-20 23:05:00,43.4,42.3,29.72,SE,138,0.0,0.0,96,0.05,,,0.40,Wunderground v.1.15,2013-10-21 03:05:00,
2013-10-20 23:15:00,43.5,42.4,29.72,SE,142,0.0,0.0,96,0.05,,,0.41,Wunderground v.1.15,2013-10-21 03:15:00,
2013-10-20 23:20:00,43.5,42.4,29.72,South,175,0.0,0.0,96,0.06,,,0.42,Wunderground v.1.15,2013-10-21 03:20:00,
2013-10-20 23:25:00,43.6,42.5,29.71,South,169,0.0,0.0,96,0.06,,,0.42,Wunderground v.1.15,2013-10-21 03:25:00,
2013-10-20 23:30:00,43.7,42.6,29.71,South,169,0.0,0.0,96,0.06,,,0.42,Wunderground v.1.15,2013-10-21 03:30:00,
2013-10-20 23:40:00,44.1,43.3,29.70,SE,126,0.0,0.0,97,0.00,,,0.43,Wunderground v.1.15,2013-10-21 03:40:00,
2013-10-20 23:45:00,44.6,43.8,29.70,SE,125,0.0,0.0,97,0.00,,,0.43,Wunderground v.1.15,2013-10-21 03:45:00,
2013-10-20 23:50:00,45.0,44.2,29.69,NNE,18,0.0,0.0,97,0.05,,,0.44,Wunderground v.1.15,2013-10-21 03:50:00,